Terminal Aerodrome Forecast
Issued by NWS

Home | Current Version | Previous Version | Text Only | Print | Product List | Glossary On
Versions: 1 2 3 4 5 6 7 8 9 10 11 12 13
000
FTUS46 KLOX 170500
TAFSBA
TAF
KSBA 170522Z 1706/1806 33006KT P6SM SCT250 WS010/35030KT
     FM171100 VRB03KT P6SM SKC
     FM171400 10003KT 6SM BR SCT004
     FM171700 16006KT P6SM SKC
     FM172100 24012KT P6SM FEW100
     FM180100 VRB03KT P6SM FEW100 WS010/35030KT=

USA.gov is the U.S. government's official web portal to all federal, state and local government web resources and services.